Nabolsi 1 — HP3264 — position and weather

sailwx.info

Track history (hours):
 
Tides and Currents Weather Stations Pressure Air Temp Water Temp Dewpoint Dewpoint Depression Visibility Wind Speed Wind Dir Waves Ship Positions

Nabolsi 1

Last reported at 2018-Jun-07 19:29 UTC. Time now 2018-Jun-24 20:45 UTC.
Position N 36°44' E 014°32'.
Warning: this ship's position is 17 days out of date.

Length 75 m; draft 3.7 m.

Type: Cargo ship. MMSI: 357933000.

Date/timePositionNaut miles runAvg speedWind from/ knotsBaromVisibWave heightAir tempDewpointWater temp
2018-Jun-07 19:29N 36°44' E 014°32'4 7.9
2018-Jun-07 19:00N 36°46' E 014°28'4 8.2
2018-Jun-07 18:30N 36°49' E 014°25'4 8.6
2018-Jun-07 18:00N 36°53' E 014°21'4 8.3
2018-Jun-07 17:30N 36°55' E 014°17'4 7.9
2018-Jun-07 16:59N 36°56' E 014°12'3 7.1
2018-Jun-07 16:30N 36°56' E 014°07'4 7.4
2018-Jun-07 16:00N 36°57' E 014°03'4 8.0
2018-Jun-07 15:30N 36°59' E 013°59'4 8.3
2018-Jun-07 15:00N 37°01' E 013°54'4 8.4
2018-Jun-07 14:30N 37°03' E 013°49'4 8.5
2018-Jun-07 14:00N 37°04' E 013°45'  
Track history (hours):
 
Tides and Currents Weather Stations Pressure Air Temp Water Temp Dewpoint Dewpoint Depression Visibility Wind Speed Wind Dir Waves Ship Positions

Nabolsi 1

Last reported at 2018-Jun-07 19:29 UTC. Time now 2018-Jun-24 20:45 UTC.
Position N 36°44' E 014°32'.
Warning: this ship's position is 17 days out of date.

Length 75 m; draft 3.7 m.

Type: Cargo ship. MMSI: 357933000.

Date/timePositionNaut miles runAvg speedWind from/ knotsBaromVisibWave heightAir tempDewpointWater temp
2018-Jun-07 19:29N 36°44' E 014°32'4 7.9
2018-Jun-07 19:00N 36°46' E 014°28'4 8.2
2018-Jun-07 18:30N 36°49' E 014°25'4 8.6
2018-Jun-07 18:00N 36°53' E 014°21'4 8.3
2018-Jun-07 17:30N 36°55' E 014°17'4 7.9
2018-Jun-07 16:59N 36°56' E 014°12'3 7.1
2018-Jun-07 16:30N 36°56' E 014°07'4 7.4
2018-Jun-07 16:00N 36°57' E 014°03'4 8.0
2018-Jun-07 15:30N 36°59' E 013°59'4 8.3
2018-Jun-07 15:00N 37°01' E 013°54'4 8.4
2018-Jun-07 14:30N 37°03' E 013°49'4 8.5
2018-Jun-07 14:00N 37°04' E 013°45'  

Dump ship's entire track history